sensor_id;sensor_type;location;lat;lon;timestamp;temperature;humidity
70051;SHT30;57391;51.306;22.680;2023-05-16T00:01:36;12.85;85.05
70051;SHT30;57391;51.306;22.680;2023-05-16T00:04:03;12.85;85.12
70051;SHT30;57391;51.306;22.680;2023-05-16T00:06:30;12.83;85.10
70051;SHT30;57391;51.306;22.680;2023-05-16T00:08:58;12.81;85.10
70051;SHT30;57391;51.306;22.680;2023-05-16T00:11:25;12.78;85.10
70051;SHT30;57391;51.306;22.680;2023-05-16T00:13:53;12.76;85.13
70051;SHT30;57391;51.306;22.680;2023-05-16T00:16:20;12.75;85.38
70051;SHT30;57391;51.306;22.680;2023-05-16T00:18:48;12.74;85.43
70051;SHT30;57391;51.306;22.680;2023-05-16T00:32:43;12.72;86.11
70051;SHT30;57391;51.306;22.680;2023-05-16T00:35:10;12.73;86.12
70051;SHT30;57391;51.306;22.680;2023-05-16T00:37:37;12.72;86.03
70051;SHT30;57391;51.306;22.680;2023-05-16T00:40:05;12.73;85.99
70051;SHT30;57391;51.306;22.680;2023-05-16T00:42:33;12.71;85.94
70051;SHT30;57391;51.306;22.680;2023-05-16T00:45:00;12.70;85.91
70051;SHT30;57391;51.306;22.680;2023-05-16T00:47:28;12.68;85.82
70051;SHT30;57391;51.306;22.680;2023-05-16T00:49:55;12.66;85.71
70051;SHT30;57391;51.306;22.680;2023-05-16T00:52:23;12.63;85.65
70051;SHT30;57391;51.306;22.680;2023-05-16T00:54:51;12.61;85.55
70051;SHT30;57391;51.306;22.680;2023-05-16T00:57:18;12.58;85.50
70051;SHT30;57391;51.306;22.680;2023-05-16T00:59:46;12.56;85.53
70051;SHT30;57391;51.306;22.680;2023-05-16T01:02:14;12.54;85.63
70051;SHT30;57391;51.306;22.680;2023-05-16T01:04:41;12.52;85.72
70051;SHT30;57391;51.306;22.680;2023-05-16T01:07:09;12.49;85.76
70051;SHT30;57391;51.306;22.680;2023-05-16T01:09:37;12.48;85.80
70051;SHT30;57391;51.306;22.680;2023-05-16T01:15:04;12.44;85.83
70051;SHT30;57391;51.306;22.680;2023-05-16T01:20:51;12.39;85.90
70051;SHT30;57391;51.306;22.680;2023-05-16T01:26:29;12.33;85.92
70051;SHT30;57391;51.306;22.680;2023-05-16T01:28:59;12.31;85.88
70051;SHT30;57391;51.306;22.680;2023-05-16T01:31:27;12.27;85.82
70051;SHT30;57391;51.306;22.680;2023-05-16T01:33:55;12.23;85.82
70051;SHT30;57391;51.306;22.680;2023-05-16T01:44:49;12.12;86.11
70051;SHT30;57391;51.306;22.680;2023-05-16T01:47:28;12.08;86.04
70051;SHT30;57391;51.306;22.680;2023-05-16T01:50:14;12.06;86.02
70051;SHT30;57391;51.306;22.680;2023-05-16T01:55:12;11.99;85.97
70051;SHT30;57391;51.306;22.680;2023-05-16T01:57:46;11.96;85.92
70051;SHT30;57391;51.306;22.680;2023-05-16T02:00:16;11.92;85.99
70051;SHT30;57391;51.306;22.680;2023-05-16T02:02:43;11.90;86.04
70051;SHT30;57391;51.306;22.680;2023-05-16T02:05:10;11.88;86.02
70051;SHT30;57391;51.306;22.680;2023-05-16T02:07:37;11.86;86.01
70051;SHT30;57391;51.306;22.680;2023-05-16T02:10:05;11.84;85.93
70051;SHT30;57391;51.306;22.680;2023-05-16T02:12:35;11.82;85.92
70051;SHT30;57391;51.306;22.680;2023-05-16T02:15:03;11.81;85.89
70051;SHT30;57391;51.306;22.680;2023-05-16T02:17:31;11.80;85.90
70051;SHT30;57391;51.306;22.680;2023-05-16T02:19:58;11.78;85.90
70051;SHT30;57391;51.306;22.680;2023-05-16T02:22:33;11.76;85.79
70051;SHT30;57391;51.306;22.680;2023-05-16T02:25:00;11.75;85.76
70051;SHT30;57391;51.306;22.680;2023-05-16T02:27:29;11.72;85.70
70051;SHT30;57391;51.306;22.680;2023-05-16T02:29:56;11.69;85.66
70051;SHT30;57391;51.306;22.680;2023-05-16T02:32:24;11.66;85.60
70051;SHT30;57391;51.306;22.680;2023-05-16T02:34:51;11.65;85.64
70051;SHT30;57391;51.306;22.680;2023-05-16T02:37:18;11.62;85.62
70051;SHT30;57391;51.306;22.680;2023-05-16T02:39:45;11.61;85.59
70051;SHT30;57391;51.306;22.680;2023-05-16T02:42:12;11.61;85.49
70051;SHT30;57391;51.306;22.680;2023-05-16T02:44:39;11.59;85.40
70051;SHT30;57391;51.306;22.680;2023-05-16T02:47:06;11.57;85.34
70051;SHT30;57391;51.306;22.680;2023-05-16T02:49:33;11.56;85.30
70051;SHT30;57391;51.306;22.680;2023-05-16T02:52:00;11.55;85.29
70051;SHT30;57391;51.306;22.680;2023-05-16T02:54:27;11.53;85.22
70051;SHT30;57391;51.306;22.680;2023-05-16T02:56:54;11.52;85.19
70051;SHT30;57391;51.306;22.680;2023-05-16T02:59:21;11.52;85.20
70051;SHT30;57391;51.306;22.680;2023-05-16T03:01:48;11.53;85.21
70051;SHT30;57391;51.306;22.680;2023-05-16T03:04:15;11.53;85.13
70051;SHT30;57391;51.306;22.680;2023-05-16T03:06:42;11.54;85.10
70051;SHT30;57391;51.306;22.680;2023-05-16T03:09:10;11.54;85.20
70051;SHT30;57391;51.306;22.680;2023-05-16T03:11:37;11.53;85.24
70051;SHT30;57391;51.306;22.680;2023-05-16T03:14:04;11.53;85.21
70051;SHT30;57391;51.306;22.680;2023-05-16T03:16:31;11.53;85.20
70051;SHT30;57391;51.306;22.680;2023-05-16T03:18:58;11.53;85.20
70051;SHT30;57391;51.306;22.680;2023-05-16T03:21:26;11.53;85.20
70051;SHT30;57391;51.306;22.680;2023-05-16T03:23:53;11.52;85.19
70051;SHT30;57391;51.306;22.680;2023-05-16T03:26:20;11.52;85.22
70051;SHT30;57391;51.306;22.680;2023-05-16T03:28:49;11.53;85.23
70051;SHT30;57391;51.306;22.680;2023-05-16T03:31:16;11.54;85.27
70051;SHT30;57391;51.306;22.680;2023-05-16T03:34:00;11.58;85.25
70051;SHT30;57391;51.306;22.680;2023-05-16T03:36:27;11.60;85.23
70051;SHT30;57391;51.306;22.680;2023-05-16T03:38:55;11.63;85.23
70051;SHT30;57391;51.306;22.680;2023-05-16T03:41:22;11.67;85.20
70051;SHT30;57391;51.306;22.680;2023-05-16T03:43:49;11.70;85.12
70051;SHT30;57391;51.306;22.680;2023-05-16T03:46:16;11.73;85.10
70051;SHT30;57391;51.306;22.680;2023-05-16T03:48:44;11.80;85.08
70051;SHT30;57391;51.306;22.680;2023-05-16T03:51:12;12.41;84.91
70051;SHT30;57391;51.306;22.680;2023-05-16T03:53:42;14.17;82.52
70051;SHT30;57391;51.306;22.680;2023-05-16T03:56:11;16.21;78.03
70051;SHT30;57391;51.306;22.680;2023-05-16T03:58:38;17.98;73.39
70051;SHT30;57391;51.306;22.680;2023-05-16T04:01:06;19.53;69.50
70051;SHT30;57391;51.306;22.680;2023-05-16T04:03:33;20.93;65.37
70051;SHT30;57391;51.306;22.680;2023-05-16T04:06:00;22.11;60.58
70051;SHT30;57391;51.306;22.680;2023-05-16T04:08:27;23.00;57.48
70051;SHT30;57391;51.306;22.680;2023-05-16T04:10:56;23.91;55.02
70051;SHT30;57391;51.306;22.680;2023-05-16T04:20:05;26.83;47.38
70051;SHT30;57391;51.306;22.680;2023-05-16T04:22:33;27.48;45.51
70051;SHT30;57391;51.306;22.680;2023-05-16T04:25:01;28.02;43.72
70051;SHT30;57391;51.306;22.680;2023-05-16T04:27:28;28.46;42.42
70051;SHT30;57391;51.306;22.680;2023-05-16T04:29:56;28.97;41.60
70051;SHT30;57391;51.306;22.680;2023-05-16T04:32:24;29.40;40.33
70051;SHT30;57391;51.306;22.680;2023-05-16T04:34:54;29.75;39.46
70051;SHT30;57391;51.306;22.680;2023-05-16T04:37:21;30.22;38.66
70051;SHT30;57391;51.306;22.680;2023-05-16T04:39:48;30.59;38.20
70051;SHT30;57391;51.306;22.680;2023-05-16T04:42:16;30.94;36.86
70051;SHT30;57391;51.306;22.680;2023-05-16T04:44:44;31.04;36.21
70051;SHT30;57391;51.306;22.680;2023-05-16T04:47:13;30.64;36.20
70051;SHT30;57391;51.306;22.680;2023-05-16T04:49:40;29.30;37.79
70051;SHT30;57391;51.306;22.680;2023-05-16T04:52:08;27.79;39.55
70051;SHT30;57391;51.306;22.680;2023-05-16T04:54:36;26.42;40.92
70051;SHT30;57391;51.306;22.680;2023-05-16T04:57:05;25.41;42.68
70051;SHT30;57391;51.306;22.680;2023-05-16T04:59:32;25.26;43.40
70051;SHT30;57391;51.306;22.680;2023-05-16T05:01:59;25.98;42.58
70051;SHT30;57391;51.306;22.680;2023-05-16T05:04:26;26.22;41.80
70051;SHT30;57391;51.306;22.680;2023-05-16T05:06:53;25.44;42.99
70051;SHT30;57391;51.306;22.680;2023-05-16T05:09:20;24.35;44.54
70051;SHT30;57391;51.306;22.680;2023-05-16T05:11:47;23.46;46.35
70051;SHT30;57391;51.306;22.680;2023-05-16T05:14:31;22.89;48.06
70051;SHT30;57391;51.306;22.680;2023-05-16T05:16:57;22.82;48.42
70051;SHT30;57391;51.306;22.680;2023-05-16T05:19:25;23.57;47.31
70051;SHT30;57391;51.306;22.680;2023-05-16T05:21:51;24.40;45.92
70051;SHT30;57391;51.306;22.680;2023-05-16T05:24:18;24.97;44.98
70051;SHT30;57391;51.306;22.680;2023-05-16T05:26:45;25.00;44.58
70051;SHT30;57391;51.306;22.680;2023-05-16T05:29:13;24.16;45.85
70051;SHT30;57391;51.306;22.680;2023-05-16T05:31:39;23.29;47.48
70051;SHT30;57391;51.306;22.680;2023-05-16T05:34:07;22.63;48.84
70051;SHT30;57391;51.306;22.680;2023-05-16T05:36:34;22.14;49.83
70051;SHT30;57391;51.306;22.680;2023-05-16T05:39:01;21.74;51.07
70051;SHT30;57391;51.306;22.680;2023-05-16T05:41:28;21.62;51.33
70051;SHT30;57391;51.306;22.680;2023-05-16T05:43:55;21.69;51.57
70051;SHT30;57391;51.306;22.680;2023-05-16T05:46:23;21.75;51.78
70051;SHT30;57391;51.306;22.680;2023-05-16T05:48:51;21.75;51.30
70051;SHT30;57391;51.306;22.680;2023-05-16T05:51:19;21.63;51.03
70051;SHT30;57391;51.306;22.680;2023-05-16T05:53:46;21.49;51.47
70051;SHT30;57391;51.306;22.680;2023-05-16T05:56:13;21.19;51.97
70051;SHT30;57391;51.306;22.680;2023-05-16T05:58:41;20.66;52.81
70051;SHT30;57391;51.306;22.680;2023-05-16T06:01:09;20.27;54.79
70051;SHT30;57391;51.306;22.680;2023-05-16T06:11:52;19.81;56.79
70051;SHT30;57391;51.306;22.680;2023-05-16T06:14:19;20.13;55.51
70051;SHT30;57391;51.306;22.680;2023-05-16T06:16:47;20.45;55.56
70051;SHT30;57391;51.306;22.680;2023-05-16T06:19:13;20.82;55.14
70051;SHT30;57391;51.306;22.680;2023-05-16T06:21:42;21.25;54.33
70051;SHT30;57391;51.306;22.680;2023-05-16T06:24:09;21.71;53.03
70051;SHT30;57391;51.306;22.680;2023-05-16T06:26:37;22.25;53.18
70051;SHT30;57391;51.306;22.680;2023-05-16T06:29:05;22.70;51.45
70051;SHT30;57391;51.306;22.680;2023-05-16T06:31:32;22.97;49.73
70051;SHT30;57391;51.306;22.680;2023-05-16T06:43:24;21.95;51.27
70051;SHT30;57391;51.306;22.680;2023-05-16T06:45:51;21.69;50.94
70051;SHT30;57391;51.306;22.680;2023-05-16T06:48:18;21.51;52.34
70051;SHT30;57391;51.306;22.680;2023-05-16T06:50:47;21.40;52.25
70051;SHT30;57391;51.306;22.680;2023-05-16T06:53:15;21.61;52.79
70051;SHT30;57391;51.306;22.680;2023-05-16T06:55:42;21.88;51.38
70051;SHT30;57391;51.306;22.680;2023-05-16T06:58:10;21.97;51.63
70051;SHT30;57391;51.306;22.680;2023-05-16T07:00:37;22.13;51.19
70051;SHT30;57391;51.306;22.680;2023-05-16T07:03:04;22.31;50.48
70051;SHT30;57391;51.306;22.680;2023-05-16T07:05:32;22.56;50.94
70051;SHT30;57391;51.306;22.680;2023-05-16T07:07:59;22.71;49.31
70051;SHT30;57391;51.306;22.680;2023-05-16T07:10:26;22.83;49.10
70051;SHT30;57391;51.306;22.680;2023-05-16T07:12:53;22.93;49.67
70051;SHT30;57391;51.306;22.680;2023-05-16T07:15:21;23.03;49.30
70051;SHT30;57391;51.306;22.680;2023-05-16T07:17:48;23.11;49.32
70051;SHT30;57391;51.306;22.680;2023-05-16T07:20:16;23.20;48.56
70051;SHT30;57391;51.306;22.680;2023-05-16T07:22:43;23.26;47.71
70051;SHT30;57391;51.306;22.680;2023-05-16T07:25:10;23.32;47.17
70051;SHT30;57391;51.306;22.680;2023-05-16T07:27:40;23.39;47.44
70051;SHT30;57391;51.306;22.680;2023-05-16T07:30:11;23.29;46.68
70051;SHT30;57391;51.306;22.680;2023-05-16T07:32:39;23.08;46.93
70051;SHT30;57391;51.306;22.680;2023-05-16T07:35:08;22.92;47.79
70051;SHT30;57391;51.306;22.680;2023-05-16T07:37:36;22.72;48.34
70051;SHT30;57391;51.306;22.680;2023-05-16T07:40:03;22.51;47.94
70051;SHT30;57391;51.306;22.680;2023-05-16T07:42:31;22.22;48.34
70051;SHT30;57391;51.306;22.680;2023-05-16T07:44:58;21.93;48.71
70051;SHT30;57391;51.306;22.680;2023-05-16T07:47:26;21.71;49.12
70051;SHT30;57391;51.306;22.680;2023-05-16T07:49:53;21.54;49.37
70051;SHT30;57391;51.306;22.680;2023-05-16T07:52:21;21.49;49.91
70051;SHT30;57391;51.306;22.680;2023-05-16T07:54:48;21.65;50.38
70051;SHT30;57391;51.306;22.680;2023-05-16T07:57:16;21.89;49.67
70051;SHT30;57391;51.306;22.680;2023-05-16T07:59:44;22.04;50.32
70051;SHT30;57391;51.306;22.680;2023-05-16T08:02:12;22.18;50.11
70051;SHT30;57391;51.306;22.680;2023-05-16T08:04:39;22.29;49.11
70051;SHT30;57391;51.306;22.680;2023-05-16T08:07:06;22.23;49.01
70051;SHT30;57391;51.306;22.680;2023-05-16T08:09:34;22.12;48.06
70051;SHT30;57391;51.306;22.680;2023-05-16T08:12:01;22.01;48.17
70051;SHT30;57391;51.306;22.680;2023-05-16T08:14:30;21.90;48.21
70051;SHT30;57391;51.306;22.680;2023-05-16T08:17:00;21.84;49.20
70051;SHT30;57391;51.306;22.680;2023-05-16T08:19:27;21.86;49.12
70051;SHT30;57391;51.306;22.680;2023-05-16T08:21:55;21.98;49.14
70051;SHT30;57391;51.306;22.680;2023-05-16T08:24:22;22.01;49.48
70051;SHT30;57391;51.306;22.680;2023-05-16T08:26:50;21.92;49.29
70051;SHT30;57391;51.306;22.680;2023-05-16T08:29:17;22.00;49.94
70051;SHT30;57391;51.306;22.680;2023-05-16T08:31:44;22.12;48.79
70051;SHT30;57391;51.306;22.680;2023-05-16T08:34:11;22.19;49.15
70051;SHT30;57391;51.306;22.680;2023-05-16T08:36:39;22.26;49.03
70051;SHT30;57391;51.306;22.680;2023-05-16T08:39:07;22.28;48.00
70051;SHT30;57391;51.306;22.680;2023-05-16T08:41:37;22.30;48.61
70051;SHT30;57391;51.306;22.680;2023-05-16T08:44:05;22.29;48.13
70051;SHT30;57391;51.306;22.680;2023-05-16T08:46:32;22.20;47.46
70051;SHT30;57391;51.306;22.680;2023-05-16T08:49:02;22.11;47.76
70051;SHT30;57391;51.306;22.680;2023-05-16T08:51:33;22.04;48.44
70051;SHT30;57391;51.306;22.680;2023-05-16T08:54:03;21.98;48.35
70051;SHT30;57391;51.306;22.680;2023-05-16T08:56:42;21.88;48.12
70051;SHT30;57391;51.306;22.680;2023-05-16T08:59:10;21.76;48.27
70051;SHT30;57391;51.306;22.680;2023-05-16T09:01:38;21.66;48.60
70051;SHT30;57391;51.306;22.680;2023-05-16T09:04:07;21.53;48.03
70051;SHT30;57391;51.306;22.680;2023-05-16T09:06:35;21.48;48.75
70051;SHT30;57391;51.306;22.680;2023-05-16T09:09:04;21.51;48.38
70051;SHT30;57391;51.306;22.680;2023-05-16T09:11:33;21.50;49.08
70051;SHT30;57391;51.306;22.680;2023-05-16T09:14:01;21.53;49.54
70051;SHT30;57391;51.306;22.680;2023-05-16T09:16:28;21.56;48.77
70051;SHT30;57391;51.306;22.680;2023-05-16T09:18:58;21.47;48.39
70051;SHT30;57391;51.306;22.680;2023-05-16T09:21:28;21.42;49.02
70051;SHT30;57391;51.306;22.680;2023-05-16T09:24:07;21.40;48.67
70051;SHT30;57391;51.306;22.680;2023-05-16T09:26:36;21.46;49.75
70051;SHT30;57391;51.306;22.680;2023-05-16T09:29:11;21.56;48.85
70051;SHT30;57391;51.306;22.680;2023-05-16T09:31:39;21.58;48.81
70051;SHT30;57391;51.306;22.680;2023-05-16T09:34:07;21.51;49.03
70051;SHT30;57391;51.306;22.680;2023-05-16T09:36:36;21.47;49.29
70051;SHT30;57391;51.306;22.680;2023-05-16T09:39:06;21.48;49.92
70051;SHT30;57391;51.306;22.680;2023-05-16T09:41:34;21.49;49.49
70051;SHT30;57391;51.306;22.680;2023-05-16T09:44:05;21.50;50.20
70051;SHT30;57391;51.306;22.680;2023-05-16T09:48:11;21.61;50.08
70051;SHT30;57391;51.306;22.680;2023-05-16T09:50:40;21.69;50.16
70051;SHT30;57391;51.306;22.680;2023-05-16T09:56:13;21.69;50.22
70051;SHT30;57391;51.306;22.680;2023-05-16T09:58:43;21.64;50.20
70051;SHT30;57391;51.306;22.680;2023-05-16T10:01:12;21.65;50.88
70051;SHT30;57391;51.306;22.680;2023-05-16T10:03:40;21.72;50.58
70051;SHT30;57391;51.306;22.680;2023-05-16T10:06:09;21.73;50.60
70051;SHT30;57391;51.306;22.680;2023-05-16T10:08:40;21.75;51.17
70051;SHT30;57391;51.306;22.680;2023-05-16T10:11:09;21.79;51.46
70051;SHT30;57391;51.306;22.680;2023-05-16T10:13:37;21.92;51.62
70051;SHT30;57391;51.306;22.680;2023-05-16T10:16:06;22.05;50.97
70051;SHT30;57391;51.306;22.680;2023-05-16T10:18:39;22.09;50.77
70051;SHT30;57391;51.306;22.680;2023-05-16T10:21:09;22.09;50.17
70051;SHT30;57391;51.306;22.680;2023-05-16T10:23:41;22.13;50.75
70051;SHT30;57391;51.306;22.680;2023-05-16T10:26:13;22.17;50.40
70051;SHT30;57391;51.306;22.680;2023-05-16T10:28:43;22.20;50.17
70051;SHT30;57391;51.306;22.680;2023-05-16T10:31:11;22.25;50.81
70051;SHT30;57391;51.306;22.680;2023-05-16T10:33:40;22.34;51.41
70051;SHT30;57391;51.306;22.680;2023-05-16T10:36:09;22.39;49.76
70051;SHT30;57391;51.306;22.680;2023-05-16T10:38:37;22.39;49.89
70051;SHT30;57391;51.306;22.680;2023-05-16T10:41:06;22.45;50.11
70051;SHT30;57391;51.306;22.680;2023-05-16T10:43:35;22.45;48.71
70051;SHT30;57391;51.306;22.680;2023-05-16T10:46:03;22.46;48.28
70051;SHT30;57391;51.306;22.680;2023-05-16T10:53:51;22.43;49.15
70051;SHT30;57391;51.306;22.680;2023-05-16T10:56:24;22.40;49.39
70051;SHT30;57391;51.306;22.680;2023-05-16T10:58:54;22.38;48.76
70051;SHT30;57391;51.306;22.680;2023-05-16T11:01:32;22.34;48.00
70051;SHT30;57391;51.306;22.680;2023-05-16T11:09:17;22.39;49.37
70051;SHT30;57391;51.306;22.680;2023-05-16T11:11:53;22.48;49.75
70051;SHT30;57391;51.306;22.680;2023-05-16T11:14:37;22.60;49.68
70051;SHT30;57391;51.306;22.680;2023-05-16T11:17:11;22.75;48.29
70051;SHT30;57391;51.306;22.680;2023-05-16T11:24:37;23.01;46.96
70051;SHT30;57391;51.306;22.680;2023-05-16T11:27:05;23.04;47.01
70051;SHT30;57391;51.306;22.680;2023-05-16T11:29:33;23.02;47.86
70051;SHT30;57391;51.306;22.680;2023-05-16T11:32:03;23.01;48.21
70051;SHT30;57391;51.306;22.680;2023-05-16T11:34:31;23.02;47.29
70051;SHT30;57391;51.306;22.680;2023-05-16T11:37:05;23.00;46.84
70051;SHT30;57391;51.306;22.680;2023-05-16T11:39:33;22.95;47.94
70051;SHT30;57391;51.306;22.680;2023-05-16T11:42:00;23.02;48.46
70051;SHT30;57391;51.306;22.680;2023-05-16T11:44:28;23.13;48.37
70051;SHT30;57391;51.306;22.680;2023-05-16T11:46:55;23.12;47.90
70051;SHT30;57391;51.306;22.680;2023-05-16T11:49:22;23.12;48.31
70051;SHT30;57391;51.306;22.680;2023-05-16T11:51:49;23.19;48.81
70051;SHT30;57391;51.306;22.680;2023-05-16T11:54:23;23.20;47.09
70051;SHT30;57391;51.306;22.680;2023-05-16T11:56:51;23.19;47.19
70051;SHT30;57391;51.306;22.680;2023-05-16T11:59:19;23.14;48.04
70051;SHT30;57391;51.306;22.680;2023-05-16T12:01:47;23.08;46.26
70051;SHT30;57391;51.306;22.680;2023-05-16T12:04:16;23.06;46.19
70051;SHT30;57391;51.306;22.680;2023-05-16T12:06:43;23.08;47.21
70051;SHT30;57391;51.306;22.680;2023-05-16T12:09:12;23.12;47.43
70051;SHT30;57391;51.306;22.680;2023-05-16T12:11:41;23.11;47.04
70051;SHT30;57391;51.306;22.680;2023-05-16T12:14:10;23.16;47.59
70051;SHT30;57391;51.306;22.680;2023-05-16T12:16:39;23.20;47.01
70051;SHT30;57391;51.306;22.680;2023-05-16T12:19:12;23.14;46.20
70051;SHT30;57391;51.306;22.680;2023-05-16T12:21:39;23.03;46.21
70051;SHT30;57391;51.306;22.680;2023-05-16T12:24:10;22.90;46.31
70051;SHT30;57391;51.306;22.680;2023-05-16T12:26:39;22.83;46.85
70051;SHT30;57391;51.306;22.680;2023-05-16T12:29:08;22.83;47.03
70051;SHT30;57391;51.306;22.680;2023-05-16T12:31:37;22.85;46.28
70051;SHT30;57391;51.306;22.680;2023-05-16T12:34:16;22.85;46.34
70051;SHT30;57391;51.306;22.680;2023-05-16T12:36:49;22.83;48.50
70051;SHT30;57391;51.306;22.680;2023-05-16T12:39:19;22.86;48.33
70051;SHT30;57391;51.306;22.680;2023-05-16T12:41:47;22.93;49.12
70051;SHT30;57391;51.306;22.680;2023-05-16T12:44:15;23.00;49.21
70051;SHT30;57391;51.306;22.680;2023-05-16T12:46:49;23.03;49.02
70051;SHT30;57391;51.306;22.680;2023-05-16T12:49:18;23.00;49.38
70051;SHT30;57391;51.306;22.680;2023-05-16T12:51:51;22.95;49.18
70051;SHT30;57391;51.306;22.680;2023-05-16T12:54:21;22.94;49.16
70051;SHT30;57391;51.306;22.680;2023-05-16T12:56:48;23.00;48.69
70051;SHT30;57391;51.306;22.680;2023-05-16T12:59:16;23.14;48.58
70051;SHT30;57391;51.306;22.680;2023-05-16T13:01:45;23.27;48.51
70051;SHT30;57391;51.306;22.680;2023-05-16T13:04:12;23.33;47.64
70051;SHT30;57391;51.306;22.680;2023-05-16T13:06:44;23.35;47.89
70051;SHT30;57391;51.306;22.680;2023-05-16T13:09:12;23.32;46.49
70051;SHT30;57391;51.306;22.680;2023-05-16T13:11:41;23.28;46.19
70051;SHT30;57391;51.306;22.680;2023-05-16T13:14:08;23.23;46.47
70051;SHT30;57391;51.306;22.680;2023-05-16T13:16:35;23.20;46.82
70051;SHT30;57391;51.306;22.680;2023-05-16T13:19:02;23.17;46.91
70051;SHT30;57391;51.306;22.680;2023-05-16T13:21:30;23.20;46.49
70051;SHT30;57391;51.306;22.680;2023-05-16T13:23:58;23.22;45.91
70051;SHT30;57391;51.306;22.680;2023-05-16T13:26:25;23.26;46.11
70051;SHT30;57391;51.306;22.680;2023-05-16T13:28:52;23.35;46.65
70051;SHT30;57391;51.306;22.680;2023-05-16T13:31:20;23.39;45.69
70051;SHT30;57391;51.306;22.680;2023-05-16T13:33:48;23.36;44.84
70051;SHT30;57391;51.306;22.680;2023-05-16T13:36:15;23.33;45.37
70051;SHT30;57391;51.306;22.680;2023-05-16T13:38:42;23.29;45.43
70051;SHT30;57391;51.306;22.680;2023-05-16T13:41:09;23.30;45.51
70051;SHT30;57391;51.306;22.680;2023-05-16T13:43:36;23.33;45.86
70051;SHT30;57391;51.306;22.680;2023-05-16T13:46:03;23.31;45.56
70051;SHT30;57391;51.306;22.680;2023-05-16T13:48:31;23.32;45.18
70051;SHT30;57391;51.306;22.680;2023-05-16T13:50:58;23.34;44.91
70051;SHT30;57391;51.306;22.680;2023-05-16T13:53:25;23.39;44.97
70051;SHT30;57391;51.306;22.680;2023-05-16T13:55:52;23.44;45.13
70051;SHT30;57391;51.306;22.680;2023-05-16T13:58:20;23.48;46.13
70051;SHT30;57391;51.306;22.680;2023-05-16T14:00:47;23.49;46.06
70051;SHT30;57391;51.306;22.680;2023-05-16T14:03:14;23.50;45.61
70051;SHT30;57391;51.306;22.680;2023-05-16T14:05:41;23.50;46.57
70051;SHT30;57391;51.306;22.680;2023-05-16T14:08:09;23.49;46.80
70051;SHT30;57391;51.306;22.680;2023-05-16T14:10:35;23.46;46.92
70051;SHT30;57391;51.306;22.680;2023-05-16T14:13:03;23.46;47.57
70051;SHT30;57391;51.306;22.680;2023-05-16T14:15:30;23.45;48.52
70051;SHT30;57391;51.306;22.680;2023-05-16T14:17:57;23.42;48.43
70051;SHT30;57391;51.306;22.680;2023-05-16T14:20:25;23.39;48.00
70051;SHT30;57391;51.306;22.680;2023-05-16T14:22:52;23.34;47.52
70051;SHT30;57391;51.306;22.680;2023-05-16T14:25:19;23.32;47.35
70051;SHT30;57391;51.306;22.680;2023-05-16T14:27:46;23.30;47.54
70051;SHT30;57391;51.306;22.680;2023-05-16T14:30:16;23.31;47.84
70051;SHT30;57391;51.306;22.680;2023-05-16T14:32:43;23.27;48.34
70051;SHT30;57391;51.306;22.680;2023-05-16T14:35:10;23.24;48.77
70051;SHT30;57391;51.306;22.680;2023-05-16T14:37:37;23.23;48.92
70051;SHT30;57391;51.306;22.680;2023-05-16T14:40:04;23.21;48.08
70051;SHT30;57391;51.306;22.680;2023-05-16T14:42:34;23.20;47.09
70051;SHT30;57391;51.306;22.680;2023-05-16T14:45:03;23.16;46.39
70051;SHT30;57391;51.306;22.680;2023-05-16T14:47:32;23.11;46.66
70051;SHT30;57391;51.306;22.680;2023-05-16T14:49:59;23.09;47.12
70051;SHT30;57391;51.306;22.680;2023-05-16T14:52:26;23.03;45.95
70051;SHT30;57391;51.306;22.680;2023-05-16T14:54:54;22.98;46.41
70051;SHT30;57391;51.306;22.680;2023-05-16T14:57:21;22.93;47.01
70051;SHT30;57391;51.306;22.680;2023-05-16T14:59:50;22.90;46.46
70051;SHT30;57391;51.306;22.680;2023-05-16T15:02:17;22.85;47.13
70051;SHT30;57391;51.306;22.680;2023-05-16T15:04:44;22.78;46.52
70051;SHT30;57391;51.306;22.680;2023-05-16T15:07:12;22.74;47.03
70051;SHT30;57391;51.306;22.680;2023-05-16T15:09:39;22.70;47.87
70051;SHT30;57391;51.306;22.680;2023-05-16T15:12:07;22.67;46.71
70051;SHT30;57391;51.306;22.680;2023-05-16T15:14:34;22.66;46.87
70051;SHT30;57391;51.306;22.680;2023-05-16T15:17:01;22.61;46.70
70051;SHT30;57391;51.306;22.680;2023-05-16T15:19:29;22.54;47.19
70051;SHT30;57391;51.306;22.680;2023-05-16T15:21:57;22.46;46.28
70051;SHT30;57391;51.306;22.680;2023-05-16T15:24:24;22.39;46.42
70051;SHT30;57391;51.306;22.680;2023-05-16T15:26:51;22.35;47.10
70051;SHT30;57391;51.306;22.680;2023-05-16T15:29:18;22.29;47.32
70051;SHT30;57391;51.306;22.680;2023-05-16T15:31:45;22.21;47.26
70051;SHT30;57391;51.306;22.680;2023-05-16T15:34:12;22.13;47.76
70051;SHT30;57391;51.306;22.680;2023-05-16T15:36:40;22.09;48.22
70051;SHT30;57391;51.306;22.680;2023-05-16T15:39:06;22.06;48.78
70051;SHT30;57391;51.306;22.680;2023-05-16T15:41:34;22.04;49.26
70051;SHT30;57391;51.306;22.680;2023-05-16T15:44:00;21.99;49.49
70051;SHT30;57391;51.306;22.680;2023-05-16T15:46:28;21.91;49.83
70051;SHT30;57391;51.306;22.680;2023-05-16T15:48:59;21.84;49.92
70051;SHT30;57391;51.306;22.680;2023-05-16T15:51:27;21.77;50.60
70051;SHT30;57391;51.306;22.680;2023-05-16T15:53:54;21.70;50.55
70051;SHT30;57391;51.306;22.680;2023-05-16T15:56:21;21.64;50.56
70051;SHT30;57391;51.306;22.680;2023-05-16T15:58:48;21.57;50.19
70051;SHT30;57391;51.306;22.680;2023-05-16T16:01:15;21.51;49.83
70051;SHT30;57391;51.306;22.680;2023-05-16T16:03:43;21.42;49.85
70051;SHT30;57391;51.306;22.680;2023-05-16T16:06:10;21.35;49.31
70051;SHT30;57391;51.306;22.680;2023-05-16T16:08:37;21.30;49.21
70051;SHT30;57391;51.306;22.680;2023-05-16T16:11:04;21.26;49.60
70051;SHT30;57391;51.306;22.680;2023-05-16T16:13:40;21.24;49.71
70051;SHT30;57391;51.306;22.680;2023-05-16T16:17:29;21.18;50.21
70051;SHT30;57391;51.306;22.680;2023-05-16T16:19:57;21.15;50.56
70051;SHT30;57391;51.306;22.680;2023-05-16T16:22:24;21.14;50.59
70051;SHT30;57391;51.306;22.680;2023-05-16T16:24:52;21.10;50.42
70051;SHT30;57391;51.306;22.680;2023-05-16T16:27:18;21.06;50.73
70051;SHT30;57391;51.306;22.680;2023-05-16T16:29:46;21.03;50.89
70051;SHT30;57391;51.306;22.680;2023-05-16T16:32:13;21.00;50.91
70051;SHT30;57391;51.306;22.680;2023-05-16T16:34:40;20.98;50.90
70051;SHT30;57391;51.306;22.680;2023-05-16T16:37:08;20.96;51.00
70051;SHT30;57391;51.306;22.680;2023-05-16T16:39:37;20.92;50.79